Terminal Aerodrome Forecast
Issued by NWS

Current Version | Previous Version | Text Only | Print | Product List | Glossary On
Versions: 1 2 3 4 5 6 7 8 9 10 11 12 13 14
000
FTUS42 KMLB 222334
TAFSFB
TAF
KSFB 222334Z 2300/2324 20003KT P6SM BKN200
     FM231400 21005KT P6SM FEW025 BKN150
     FM231700 22008KT P6SM VCSH SCT035 BKN150=

USA.gov is the U.S. government's official web portal to all federal, state and local government web resources and services.